Airfield :







YOU CAN JOIN US ON...

 
LOGIN :

Register | Disclaimer

   EN    FR    IT 

 









Legend :    VFR   Marginal VFR   IFR   Intensive IFR   Very Intensive IFR
Visi :
Ceiling :
>= 8 km
>= 3000ft
5 to 8 km
1000 to 3000 ft
1500m to 5 km
500 to 1000 ft
800 to 1500m
200 to 500 ft
< 800m
< 200 ft
Symbols :   Thunderstorms  Fog  Heavy snow  Heavy precipitations  Wind > 20 kt






- Airport Elevation : 10 ft
- IATA code : BRX


MDBH - Maria Montez Int.

CURRENT METAR :
  • 110000Z 09014KT 9999 FEW018 SCT080 26/23 Q1016

EXPIRED METARs :
  • 102300Z 16010KT 9999 SCT020 SCT080 28/23 Q1015
  • 102200Z 13012KT 9999 SCT022 SCT080 29/23 Q1015

TAF TAF MDBH
Valid from the 11 at 00:00 until the 12 at 00:00 UTC


102200Z 1100/1200 13012KT 9999 SCT018 SCT070
PROB30 1105/1110 8000 -RA SCT016 BKN070
BECMG 1111/1113 00000KT



MET'MAP, your aeronautical weather chart ! - Copyright ORBIFLY December 2007 - Disclaimer

ORBIFLY MET'MAP TEAM :

Programming & Development : Alexandra Zaïnal
Concept & original design : Baudouin d'Aumeries
Assistance for programming : Marc-Olivier Méhu
Technical & hardware support : Manuel Goepfert

Contact : metmap@orbifly.com




SOURCES & CREDITS :

   NOAA